sensor_id;sensor_type;location;lat;lon;timestamp;P1;durP1;ratioP1;P2;durP2;ratioP2
44248;SDS011;29923;48.718;9.272;2022-09-09T00:00:53;5.35;;;1.65;;
44248;SDS011;29923;48.718;9.272;2022-09-09T00:03:25;5.70;;;1.57;;
44248;SDS011;29923;48.718;9.272;2022-09-09T00:06:08;10.35;;;1.95;;
44248;SDS011;29923;48.718;9.272;2022-09-09T00:11:49;8.93;;;2.03;;
44248;SDS011;29923;48.718;9.272;2022-09-09T00:14:23;9.88;;;1.55;;
44248;SDS011;29923;48.718;9.272;2022-09-09T00:16:59;6.18;;;1.70;;
44248;SDS011;29923;48.718;9.272;2022-09-09T00:19:29;7.63;;;2.13;;
44248;SDS011;29923;48.718;9.272;2022-09-09T00:24:41;8.60;;;2.22;;
44248;SDS011;29923;48.718;9.272;2022-09-09T00:27:10;8.85;;;1.60;;
44248;SDS011;29923;48.718;9.272;2022-09-09T00:29:51;12.80;;;2.03;;
44248;SDS011;29923;48.718;9.272;2022-09-09T00:32:27;5.47;;;1.70;;
44248;SDS011;29923;48.718;9.272;2022-09-09T00:35:15;4.00;;;1.50;;
44248;SDS011;29923;48.718;9.272;2022-09-09T00:37:54;8.18;;;1.80;;
44248;SDS011;29923;48.718;9.272;2022-09-09T00:40:35;4.68;;;1.23;;
44248;SDS011;29923;48.718;9.272;2022-09-09T00:43:27;5.18;;;1.77;;
44248;SDS011;29923;48.718;9.272;2022-09-09T00:49:02;9.38;;;1.83;;
44248;SDS011;29923;48.718;9.272;2022-09-09T00:57:14;4.13;;;1.57;;
44248;SDS011;29923;48.718;9.272;2022-09-09T01:05:44;4.88;;;1.30;;
44248;SDS011;29923;48.718;9.272;2022-09-09T01:08:30;5.07;;;1.60;;
44248;SDS011;29923;48.718;9.272;2022-09-09T01:11:26;6.47;;;1.40;;
44248;SDS011;29923;48.718;9.272;2022-09-09T01:16:54;7.63;;;1.30;;
44248;SDS011;29923;48.718;9.272;2022-09-09T01:19:24;9.60;;;2.05;;
44248;SDS011;29923;48.718;9.272;2022-09-09T01:22:04;6.28;;;1.58;;
44248;SDS011;29923;48.718;9.272;2022-09-09T01:24:40;4.22;;;1.40;;
44248;SDS011;29923;48.718;9.272;2022-09-09T01:27:13;3.33;;;1.50;;
44248;SDS011;29923;48.718;9.272;2022-09-09T01:29:40;5.60;;;1.35;;
44248;SDS011;29923;48.718;9.272;2022-09-09T01:37:56;5.45;;;1.67;;
44248;SDS011;29923;48.718;9.272;2022-09-09T01:40:22;6.57;;;1.88;;
44248;SDS011;29923;48.718;9.272;2022-09-09T01:42:48;5.20;;;1.70;;
44248;SDS011;29923;48.718;9.272;2022-09-09T01:45:13;6.18;;;1.70;;
44248;SDS011;29923;48.718;9.272;2022-09-09T01:47:38;5.82;;;1.98;;
44248;SDS011;29923;48.718;9.272;2022-09-09T01:50:04;6.47;;;1.55;;
44248;SDS011;29923;48.718;9.272;2022-09-09T01:52:30;10.45;;;1.80;;
44248;SDS011;29923;48.718;9.272;2022-09-09T01:54:56;4.03;;;1.75;;
44248;SDS011;29923;48.718;9.272;2022-09-09T01:57:23;10.40;;;1.80;;
44248;SDS011;29923;48.718;9.272;2022-09-09T01:59:57;4.70;;;1.58;;
44248;SDS011;29923;48.718;9.272;2022-09-09T02:02:36;7.05;;;1.90;;
44248;SDS011;29923;48.718;9.272;2022-09-09T02:08:55;4.05;;;1.63;;
44248;SDS011;29923;48.718;9.272;2022-09-09T02:10:56;8.60;;;1.30;;
44248;SDS011;29923;48.718;9.272;2022-09-09T02:13:25;4.93;;;1.98;;
44248;SDS011;29923;48.718;9.272;2022-09-09T02:18:32;5.95;;;1.67;;
44248;SDS011;29923;48.718;9.272;2022-09-09T02:21:02;8.13;;;1.90;;
44248;SDS011;29923;48.718;9.272;2022-09-09T02:23:27;7.88;;;1.90;;
44248;SDS011;29923;48.718;9.272;2022-09-09T02:25:53;15.05;;;2.28;;
44248;SDS011;29923;48.718;9.272;2022-09-09T02:28:21;10.52;;;2.30;;
44248;SDS011;29923;48.718;9.272;2022-09-09T02:30:48;6.25;;;2.08;;
44248;SDS011;29923;48.718;9.272;2022-09-09T02:33:20;9.02;;;1.67;;
44248;SDS011;29923;48.718;9.272;2022-09-09T02:35:48;10.43;;;1.70;;
44248;SDS011;29923;48.718;9.272;2022-09-09T02:38:14;5.88;;;1.55;;
44248;SDS011;29923;48.718;9.272;2022-09-09T02:40:41;9.55;;;2.05;;
44248;SDS011;29923;48.718;9.272;2022-09-09T02:43:06;7.55;;;1.92;;
44248;SDS011;29923;48.718;9.272;2022-09-09T02:45:34;9.15;;;1.70;;
44248;SDS011;29923;48.718;9.272;2022-09-09T02:50:38;8.30;;;1.83;;
44248;SDS011;29923;48.718;9.272;2022-09-09T02:53:17;5.28;;;1.55;;
44248;SDS011;29923;48.718;9.272;2022-09-09T02:58:12;6.07;;;2.40;;
44248;SDS011;29923;48.718;9.272;2022-09-09T03:00:41;6.30;;;2.28;;
44248;SDS011;29923;48.718;9.272;2022-09-09T03:03:08;5.68;;;2.20;;
44248;SDS011;29923;48.718;9.272;2022-09-09T03:05:34;5.55;;;1.70;;
44248;SDS011;29923;48.718;9.272;2022-09-09T03:08:00;8.10;;;1.98;;
44248;SDS011;29923;48.718;9.272;2022-09-09T03:10:26;5.40;;;1.90;;
44248;SDS011;29923;48.718;9.272;2022-09-09T03:12:51;7.25;;;2.13;;
44248;SDS011;29923;48.718;9.272;2022-09-09T03:15:17;6.70;;;1.95;;
44248;SDS011;29923;48.718;9.272;2022-09-09T03:17:42;4.15;;;2.00;;
44248;SDS011;29923;48.718;9.272;2022-09-09T03:20:08;8.10;;;1.88;;
44248;SDS011;29923;48.718;9.272;2022-09-09T03:22:33;7.25;;;1.98;;
44248;SDS011;29923;48.718;9.272;2022-09-09T03:24:59;9.02;;;1.70;;
44248;SDS011;29923;48.718;9.272;2022-09-09T03:27:24;11.95;;;2.13;;
44248;SDS011;29923;48.718;9.272;2022-09-09T03:29:50;6.22;;;1.88;;
44248;SDS011;29923;48.718;9.272;2022-09-09T03:32:16;8.30;;;1.95;;
44248;SDS011;29923;48.718;9.272;2022-09-09T03:34:42;6.80;;;2.00;;
44248;SDS011;29923;48.718;9.272;2022-09-09T03:37:08;8.32;;;1.88;;
44248;SDS011;29923;48.718;9.272;2022-09-09T03:39:33;8.75;;;2.13;;
44248;SDS011;29923;48.718;9.272;2022-09-09T03:41:59;8.57;;;2.10;;
44248;SDS011;29923;48.718;9.272;2022-09-09T03:44:24;10.00;;;1.98;;
44248;SDS011;29923;48.718;9.272;2022-09-09T03:46:49;8.57;;;2.20;;
44248;SDS011;29923;48.718;9.272;2022-09-09T03:49:14;8.63;;;2.15;;
44248;SDS011;29923;48.718;9.272;2022-09-09T03:51:40;5.93;;;1.92;;
44248;SDS011;29923;48.718;9.272;2022-09-09T03:54:06;7.07;;;2.58;;
44248;SDS011;29923;48.718;9.272;2022-09-09T03:56:33;6.75;;;1.90;;
44248;SDS011;29923;48.718;9.272;2022-09-09T03:58:59;7.38;;;2.17;;
44248;SDS011;29923;48.718;9.272;2022-09-09T04:01:24;7.20;;;1.88;;
44248;SDS011;29923;48.718;9.272;2022-09-09T04:03:49;8.82;;;2.05;;
44248;SDS011;29923;48.718;9.272;2022-09-09T04:06:15;5.32;;;1.40;;
44248;SDS011;29923;48.718;9.272;2022-09-09T04:08:46;10.52;;;1.63;;
44248;SDS011;29923;48.718;9.272;2022-09-09T04:11:13;7.63;;;1.83;;
44248;SDS011;29923;48.718;9.272;2022-09-09T04:13:39;11.52;;;1.80;;
44248;SDS011;29923;48.718;9.272;2022-09-09T04:16:04;5.97;;;1.55;;
44248;SDS011;29923;48.718;9.272;2022-09-09T04:18:30;4.32;;;1.35;;
44248;SDS011;29923;48.718;9.272;2022-09-09T04:20:56;11.45;;;1.88;;
44248;SDS011;29923;48.718;9.272;2022-09-09T04:23:22;7.70;;;1.30;;
44248;SDS011;29923;48.718;9.272;2022-09-09T04:25:53;6.45;;;1.70;;
44248;SDS011;29923;48.718;9.272;2022-09-09T04:28:19;5.13;;;1.40;;
44248;SDS011;29923;48.718;9.272;2022-09-09T04:30:46;13.30;;;1.42;;
44248;SDS011;29923;48.718;9.272;2022-09-09T04:33:12;7.30;;;1.40;;
44248;SDS011;29923;48.718;9.272;2022-09-09T04:35:37;5.13;;;3.00;;
44248;SDS011;29923;48.718;9.272;2022-09-09T04:38:03;7.43;;;1.73;;
44248;SDS011;29923;48.718;9.272;2022-09-09T04:40:29;5.05;;;1.27;;
44248;SDS011;29923;48.718;9.272;2022-09-09T04:42:57;4.90;;;1.33;;
44248;SDS011;29923;48.718;9.272;2022-09-09T04:45:23;5.93;;;1.58;;
44248;SDS011;29923;48.718;9.272;2022-09-09T04:47:48;7.95;;;1.70;;
44248;SDS011;29923;48.718;9.272;2022-09-09T04:50:14;7.50;;;1.48;;
44248;SDS011;29923;48.718;9.272;2022-09-09T04:52:39;6.40;;;1.45;;
44248;SDS011;29923;48.718;9.272;2022-09-09T04:55:06;9.18;;;1.60;;
44248;SDS011;29923;48.718;9.272;2022-09-09T04:57:32;5.18;;;1.45;;
44248;SDS011;29923;48.718;9.272;2022-09-09T04:59:58;7.63;;;1.60;;
44248;SDS011;29923;48.718;9.272;2022-09-09T05:02:24;2.92;;;1.15;;
44248;SDS011;29923;48.718;9.272;2022-09-09T05:04:51;8.27;;;1.38;;
44248;SDS011;29923;48.718;9.272;2022-09-09T05:07:16;8.88;;;2.03;;
44248;SDS011;29923;48.718;9.272;2022-09-09T05:09:41;6.22;;;1.73;;
44248;SDS011;29923;48.718;9.272;2022-09-09T05:12:07;6.80;;;1.10;;
44248;SDS011;29923;48.718;9.272;2022-09-09T05:14:33;7.20;;;1.52;;
44248;SDS011;29923;48.718;9.272;2022-09-09T05:16:59;5.63;;;1.25;;
44248;SDS011;29923;48.718;9.272;2022-09-09T05:19:24;3.55;;;1.05;;
44248;SDS011;29923;48.718;9.272;2022-09-09T05:21:49;9.98;;;1.75;;
44248;SDS011;29923;48.718;9.272;2022-09-09T05:24:15;6.03;;;1.35;;
44248;SDS011;29923;48.718;9.272;2022-09-09T05:26:41;8.55;;;1.40;;
44248;SDS011;29923;48.718;9.272;2022-09-09T05:29:07;10.32;;;1.50;;
44248;SDS011;29923;48.718;9.272;2022-09-09T05:31:33;3.90;;;1.38;;
44248;SDS011;29923;48.718;9.272;2022-09-09T05:33:58;7.75;;;1.60;;
44248;SDS011;29923;48.718;9.272;2022-09-09T05:36:24;7.00;;;1.83;;
44248;SDS011;29923;48.718;9.272;2022-09-09T05:38:49;7.32;;;1.50;;
44248;SDS011;29923;48.718;9.272;2022-09-09T05:41:15;5.40;;;1.70;;
44248;SDS011;29923;48.718;9.272;2022-09-09T05:43:41;13.52;;;1.80;;
44248;SDS011;29923;48.718;9.272;2022-09-09T05:46:30;6.55;;;1.50;;
44248;SDS011;29923;48.718;9.272;2022-09-09T05:48:55;8.25;;;2.03;;
44248;SDS011;29923;48.718;9.272;2022-09-09T05:51:21;6.80;;;1.30;;
44248;SDS011;29923;48.718;9.272;2022-09-09T05:53:49;3.92;;;1.17;;
44248;SDS011;29923;48.718;9.272;2022-09-09T05:56:20;8.18;;;1.30;;
44248;SDS011;29923;48.718;9.272;2022-09-09T05:58:50;8.30;;;1.90;;
44248;SDS011;29923;48.718;9.272;2022-09-09T06:01:18;5.80;;;1.63;;
44248;SDS011;29923;48.718;9.272;2022-09-09T06:03:45;5.10;;;1.40;;
44248;SDS011;29923;48.718;9.272;2022-09-09T06:06:12;11.80;;;1.60;;
44248;SDS011;29923;48.718;9.272;2022-09-09T06:08:40;3.10;;;1.63;;
44248;SDS011;29923;48.718;9.272;2022-09-09T06:11:10;5.43;;;1.63;;
44248;SDS011;29923;48.718;9.272;2022-09-09T06:13:37;6.72;;;1.63;;
44248;SDS011;29923;48.718;9.272;2022-09-09T06:16:03;7.05;;;1.45;;
44248;SDS011;29923;48.718;9.272;2022-09-09T06:18:29;6.18;;;1.35;;
44248;SDS011;29923;48.718;9.272;2022-09-09T06:20:59;7.72;;;1.73;;
44248;SDS011;29923;48.718;9.272;2022-09-09T06:23:31;10.55;;;1.77;;
44248;SDS011;29923;48.718;9.272;2022-09-09T06:26:05;9.90;;;2.05;;
44248;SDS011;29923;48.718;9.272;2022-09-09T06:28:34;7.50;;;1.52;;
44248;SDS011;29923;48.718;9.272;2022-09-09T06:31:01;8.88;;;1.83;;
44248;SDS011;29923;48.718;9.272;2022-09-09T06:33:38;8.15;;;1.70;;
44248;SDS011;29923;48.718;9.272;2022-09-09T06:36:06;7.88;;;1.77;;
44248;SDS011;29923;48.718;9.272;2022-09-09T06:38:41;6.82;;;1.50;;
44248;SDS011;29923;48.718;9.272;2022-09-09T06:41:07;6.45;;;1.90;;
44248;SDS011;29923;48.718;9.272;2022-09-09T06:43:33;12.63;;;2.08;;
44248;SDS011;29923;48.718;9.272;2022-09-09T06:46:08;12.40;;;1.90;;
44248;SDS011;29923;48.718;9.272;2022-09-09T06:48:35;10.43;;;1.55;;
44248;SDS011;29923;48.718;9.272;2022-09-09T06:51:16;6.47;;;1.45;;
44248;SDS011;29923;48.718;9.272;2022-09-09T06:53:43;12.18;;;1.67;;
44248;SDS011;29923;48.718;9.272;2022-09-09T06:58:34;11.75;;;1.58;;
44248;SDS011;29923;48.718;9.272;2022-09-09T07:01:04;5.97;;;1.75;;
44248;SDS011;29923;48.718;9.272;2022-09-09T07:03:30;7.25;;;1.42;;
44248;SDS011;29923;48.718;9.272;2022-09-09T07:05:56;6.00;;;1.38;;
44248;SDS011;29923;48.718;9.272;2022-09-09T07:08:22;6.85;;;1.60;;
44248;SDS011;29923;48.718;9.272;2022-09-09T07:10:48;6.30;;;1.60;;
44248;SDS011;29923;48.718;9.272;2022-09-09T07:13:13;5.55;;;1.63;;
44248;SDS011;29923;48.718;9.272;2022-09-09T07:15:40;7.93;;;1.52;;
44248;SDS011;29923;48.718;9.272;2022-09-09T07:18:06;8.27;;;2.08;;
44248;SDS011;29923;48.718;9.272;2022-09-09T07:20:32;11.95;;;1.60;;
44248;SDS011;29923;48.718;9.272;2022-09-09T07:22:57;4.93;;;1.52;;
44248;SDS011;29923;48.718;9.272;2022-09-09T07:25:24;4.07;;;1.83;;
44248;SDS011;29923;48.718;9.272;2022-09-09T07:27:53;15.38;;;1.88;;
44248;SDS011;29923;48.718;9.272;2022-09-09T07:30:19;5.38;;;1.63;;
44248;SDS011;29923;48.718;9.272;2022-09-09T07:32:45;5.05;;;1.52;;
44248;SDS011;29923;48.718;9.272;2022-09-09T07:35:10;5.80;;;1.52;;
44248;SDS011;29923;48.718;9.272;2022-09-09T07:37:38;5.75;;;1.63;;
44248;SDS011;29923;48.718;9.272;2022-09-09T07:40:04;7.15;;;1.50;;
44248;SDS011;29923;48.718;9.272;2022-09-09T07:42:30;8.65;;;2.15;;
44248;SDS011;29923;48.718;9.272;2022-09-09T07:44:57;4.43;;;1.30;;
44248;SDS011;29923;48.718;9.272;2022-09-09T07:47:22;4.75;;;1.58;;
44248;SDS011;29923;48.718;9.272;2022-09-09T07:49:49;11.10;;;1.35;;
44248;SDS011;29923;48.718;9.272;2022-09-09T07:52:15;7.60;;;1.40;;
44248;SDS011;29923;48.718;9.272;2022-09-09T07:54:41;13.45;;;1.52;;
44248;SDS011;29923;48.718;9.272;2022-09-09T07:57:06;12.65;;;1.70;;
44248;SDS011;29923;48.718;9.272;2022-09-09T07:59:32;5.07;;;1.10;;
44248;SDS011;29923;48.718;9.272;2022-09-09T08:01:58;4.60;;;1.05;;
44248;SDS011;29923;48.718;9.272;2022-09-09T08:04:24;6.80;;;1.40;;
44248;SDS011;29923;48.718;9.272;2022-09-09T08:07:00;5.32;;;1.40;;
44248;SDS011;29923;48.718;9.272;2022-09-09T08:09:27;3.72;;;1.52;;
44248;SDS011;29923;48.718;9.272;2022-09-09T08:11:54;11.32;;;1.90;;
44248;SDS011;29923;48.718;9.272;2022-09-09T08:14:21;2.67;;;1.02;;
44248;SDS011;29923;48.718;9.272;2022-09-09T08:16:48;7.50;;;1.77;;
44248;SDS011;29923;48.718;9.272;2022-09-09T08:19:14;13.23;;;2.70;;
44248;SDS011;29923;48.718;9.272;2022-09-09T08:21:40;7.63;;;1.38;;
44248;SDS011;29923;48.718;9.272;2022-09-09T08:24:07;5.03;;;1.23;;
44248;SDS011;29923;48.718;9.272;2022-09-09T08:26:34;6.30;;;1.40;;
44248;SDS011;29923;48.718;9.272;2022-09-09T08:29:02;5.60;;;1.65;;
44248;SDS011;29923;48.718;9.272;2022-09-09T08:31:30;3.88;;;1.33;;
44248;SDS011;29923;48.718;9.272;2022-09-09T08:33:58;6.22;;;1.27;;
44248;SDS011;29923;48.718;9.272;2022-09-09T08:36:30;5.35;;;1.35;;
44248;SDS011;29923;48.718;9.272;2022-09-09T08:39:02;5.22;;;1.77;;
44248;SDS011;29923;48.718;9.272;2022-09-09T08:49:38;6.15;;;1.73;;
44248;SDS011;29923;48.718;9.272;2022-09-09T08:52:15;4.75;;;1.30;;
44248;SDS011;29923;48.718;9.272;2022-09-09T08:54:48;7.90;;;1.42;;
44248;SDS011;29923;48.718;9.272;2022-09-09T08:57:14;4.78;;;1.40;;
44248;SDS011;29923;48.718;9.272;2022-09-09T08:59:44;7.65;;;1.27;;
44248;SDS011;29923;48.718;9.272;2022-09-09T09:02:26;14.23;;;2.08;;
44248;SDS011;29923;48.718;9.272;2022-09-09T09:07:47;9.35;;;1.35;;
44248;SDS011;29923;48.718;9.272;2022-09-09T09:13:12;5.38;;;1.52;;
44248;SDS011;29923;48.718;9.272;2022-09-09T09:15:42;2.90;;;0.98;;
44248;SDS011;29923;48.718;9.272;2022-09-09T09:18:10;6.47;;;1.10;;
44248;SDS011;29923;48.718;9.272;2022-09-09T09:23:34;4.95;;;1.13;;
44248;SDS011;29923;48.718;9.272;2022-09-09T09:26:08;10.45;;;1.25;;
44248;SDS011;29923;48.718;9.272;2022-09-09T09:28:36;8.55;;;1.30;;
44248;SDS011;29923;48.718;9.272;2022-09-09T09:31:11;5.32;;;1.15;;
44248;SDS011;29923;48.718;9.272;2022-09-09T09:36:06;9.70;;;1.42;;
44248;SDS011;29923;48.718;9.272;2022-09-09T09:38:33;7.18;;;1.40;;
44248;SDS011;29923;48.718;9.272;2022-09-09T09:40:59;9.88;;;0.85;;
44248;SDS011;29923;48.718;9.272;2022-09-09T09:43:26;7.22;;;0.68;;
44248;SDS011;29923;48.718;9.272;2022-09-09T09:45:53;5.15;;;1.17;;
44248;SDS011;29923;48.718;9.272;2022-09-09T09:48:18;6.90;;;0.65;;
44248;SDS011;29923;48.718;9.272;2022-09-09T09:53:31;2.70;;;0.73;;
44248;SDS011;29923;48.718;9.272;2022-09-09T09:58:32;4.80;;;0.88;;
44248;SDS011;29923;48.718;9.272;2022-09-09T10:01:01;4.97;;;1.00;;
44248;SDS011;29923;48.718;9.272;2022-09-09T10:03:28;4.25;;;0.80;;
44248;SDS011;29923;48.718;9.272;2022-09-09T10:05:55;2.92;;;0.77;;
44248;SDS011;29923;48.718;9.272;2022-09-09T10:08:24;3.53;;;0.80;;
44248;SDS011;29923;48.718;9.272;2022-09-09T10:19:21;1.67;;;0.60;;
44248;SDS011;29923;48.718;9.272;2022-09-09T10:27:28;6.82;;;1.15;;
44248;SDS011;29923;48.718;9.272;2022-09-09T10:32:56;10.65;;;1.20;;
44248;SDS011;29923;48.718;9.272;2022-09-09T10:38:46;5.25;;;1.52;;
44248;SDS011;29923;48.718;9.272;2022-09-09T10:41:16;7.55;;;1.33;;
44248;SDS011;29923;48.718;9.272;2022-09-09T10:54:56;9.50;;;1.25;;
44248;SDS011;29923;48.718;9.272;2022-09-09T10:57:33;9.18;;;1.52;;
44248;SDS011;29923;48.718;9.272;2022-09-09T11:00:13;4.82;;;1.30;;
44248;SDS011;29923;48.718;9.272;2022-09-09T11:02:43;7.15;;;1.25;;
44248;SDS011;29923;48.718;9.272;2022-09-09T11:05:15;4.43;;;1.40;;
44248;SDS011;29923;48.718;9.272;2022-09-09T11:10:41;2.55;;;0.90;;
44248;SDS011;29923;48.718;9.272;2022-09-09T11:13:26;7.93;;;1.10;;
44248;SDS011;29923;48.718;9.272;2022-09-09T11:16:10;1.80;;;0.70;;
44248;SDS011;29923;48.718;9.272;2022-09-09T11:18:41;2.97;;;0.95;;
44248;SDS011;29923;48.718;9.272;2022-09-09T11:21:10;4.03;;;1.38;;
44248;SDS011;29923;48.718;9.272;2022-09-09T11:23:43;10.25;;;1.17;;
44248;SDS011;29923;48.718;9.272;2022-09-09T11:26:18;3.03;;;0.85;;
44248;SDS011;29923;48.718;9.272;2022-09-09T11:29:20;5.90;;;1.15;;
44248;SDS011;29923;48.718;9.272;2022-09-09T11:35:16;5.25;;;0.95;;
44248;SDS011;29923;48.718;9.272;2022-09-09T11:40:46;7.60;;;0.82;;
44248;SDS011;29923;48.718;9.272;2022-09-09T11:43:21;7.22;;;1.30;;
44248;SDS011;29923;48.718;9.272;2022-09-09T11:45:53;6.90;;;1.35;;
44248;SDS011;29923;48.718;9.272;2022-09-09T11:48:32;5.13;;;1.00;;
44248;SDS011;29923;48.718;9.272;2022-09-09T11:51:08;4.22;;;1.08;;
44248;SDS011;29923;48.718;9.272;2022-09-09T11:53:36;2.47;;;0.70;;
44248;SDS011;29923;48.718;9.272;2022-09-09T11:56:22;2.83;;;1.23;;
44248;SDS011;29923;48.718;9.272;2022-09-09T11:58:54;5.40;;;1.52;;
44248;SDS011;29923;48.718;9.272;2022-09-09T12:09:29;1.02;;;0.30;;
44248;SDS011;29923;48.718;9.272;2022-09-09T12:17:17;1.40;;;0.40;;
44248;SDS011;29923;48.718;9.272;2022-09-09T12:19:45;4.55;;;0.40;;
44248;SDS011;29923;48.718;9.272;2022-09-09T12:22:15;0.85;;;0.30;;
44248;SDS011;29923;48.718;9.272;2022-09-09T12:25:16;3.25;;;0.52;;
44248;SDS011;29923;48.718;9.272;2022-09-09T12:27:44;1.13;;;0.40;;
44248;SDS011;29923;48.718;9.272;2022-09-09T12:30:29;2.97;;;0.52;;
44248;SDS011;29923;48.718;9.272;2022-09-09T12:33:00;2.10;;;0.60;;
44248;SDS011;29923;48.718;9.272;2022-09-09T12:35:27;4.72;;;0.45;;
44248;SDS011;29923;48.718;9.272;2022-09-09T12:37:54;2.65;;;0.80;;
44248;SDS011;29923;48.718;9.272;2022-09-09T12:40:24;2.17;;;0.60;;
44248;SDS011;29923;48.718;9.272;2022-09-09T12:42:50;2.30;;;0.80;;
44248;SDS011;29923;48.718;9.272;2022-09-09T12:45:20;2.03;;;0.40;;
44248;SDS011;29923;48.718;9.272;2022-09-09T12:47:54;1.98;;;0.57;;
44248;SDS011;29923;48.718;9.272;2022-09-09T12:50:23;3.40;;;0.50;;
44248;SDS011;29923;48.718;9.272;2022-09-09T12:52:51;2.70;;;0.77;;
44248;SDS011;29923;48.718;9.272;2022-09-09T12:55:23;3.47;;;0.60;;
44248;SDS011;29923;48.718;9.272;2022-09-09T12:57:51;2.88;;;0.80;;
44248;SDS011;29923;48.718;9.272;2022-09-09T13:02:52;2.63;;;0.52;;
44248;SDS011;29923;48.718;9.272;2022-09-09T13:05:23;4.20;;;0.98;;
44248;SDS011;29923;48.718;9.272;2022-09-09T13:07:51;1.02;;;0.40;;
44248;SDS011;29923;48.718;9.272;2022-09-09T13:10:26;5.95;;;0.80;;
44248;SDS011;29923;48.718;9.272;2022-09-09T13:12:53;5.03;;;0.68;;
44248;SDS011;29923;48.718;9.272;2022-09-09T13:15:22;8.52;;;0.85;;
44248;SDS011;29923;48.718;9.272;2022-09-09T13:17:54;3.88;;;0.85;;
44248;SDS011;29923;48.718;9.272;2022-09-09T13:20:26;3.15;;;0.68;;
44248;SDS011;29923;48.718;9.272;2022-09-09T13:22:52;2.13;;;0.70;;
44248;SDS011;29923;48.718;9.272;2022-09-09T13:25:25;2.13;;;0.70;;
44248;SDS011;29923;48.718;9.272;2022-09-09T13:27:53;2.33;;;0.70;;
44248;SDS011;29923;48.718;9.272;2022-09-09T13:33:18;3.78;;;1.00;;
44248;SDS011;29923;48.718;9.272;2022-09-09T13:38:14;3.08;;;0.68;;
44248;SDS011;29923;48.718;9.272;2022-09-09T13:40:40;4.55;;;1.25;;
44248;SDS011;29923;48.718;9.272;2022-09-09T13:43:10;2.15;;;0.80;;
44248;SDS011;29923;48.718;9.272;2022-09-09T13:45:51;3.72;;;0.73;;
44248;SDS011;29923;48.718;9.272;2022-09-09T13:48:27;2.03;;;0.68;;
44248;SDS011;29923;48.718;9.272;2022-09-09T13:50:59;3.88;;;1.02;;
44248;SDS011;29923;48.718;9.272;2022-09-09T13:53:26;2.25;;;0.75;;
44248;SDS011;29923;48.718;9.272;2022-09-09T13:55:51;3.90;;;1.42;;
44248;SDS011;29923;48.718;9.272;2022-09-09T13:58:17;4.28;;;0.70;;
44248;SDS011;29923;48.718;9.272;2022-09-09T14:00:44;5.63;;;0.93;;
44248;SDS011;29923;48.718;9.272;2022-09-09T14:03:10;0.77;;;0.70;;
44248;SDS011;29923;48.718;9.272;2022-09-09T14:05:35;11.60;;;2.10;;
44248;SDS011;29923;48.718;9.272;2022-09-09T14:08:00;2.97;;;0.88;;
44248;SDS011;29923;48.718;9.272;2022-09-09T14:10:29;3.85;;;1.00;;
44248;SDS011;29923;48.718;9.272;2022-09-09T14:12:54;3.53;;;0.80;;
44248;SDS011;29923;48.718;9.272;2022-09-09T14:15:20;3.35;;;1.13;;
44248;SDS011;29923;48.718;9.272;2022-09-09T14:17:46;6.80;;;0.80;;
44248;SDS011;29923;48.718;9.272;2022-09-09T14:20:13;4.70;;;1.00;;
44248;SDS011;29923;48.718;9.272;2022-09-09T14:22:40;3.60;;;0.93;;
44248;SDS011;29923;48.718;9.272;2022-09-09T14:25:06;5.22;;;1.00;;
44248;SDS011;29923;48.718;9.272;2022-09-09T14:27:32;4.18;;;0.90;;
44248;SDS011;29923;48.718;9.272;2022-09-09T14:29:57;1.30;;;0.52;;
44248;SDS011;29923;48.718;9.272;2022-09-09T14:32:23;3.65;;;0.50;;
44248;SDS011;29923;48.718;9.272;2022-09-09T14:34:48;2.50;;;0.80;;
44248;SDS011;29923;48.718;9.272;2022-09-09T14:37:15;2.28;;;0.60;;
44248;SDS011;29923;48.718;9.272;2022-09-09T14:39:41;2.28;;;0.68;;
44248;SDS011;29923;48.718;9.272;2022-09-09T14:42:08;2.30;;;0.60;;
44248;SDS011;29923;48.718;9.272;2022-09-09T14:44:35;3.90;;;0.70;;
44248;SDS011;29923;48.718;9.272;2022-09-09T14:47:02;3.80;;;0.77;;
44248;SDS011;29923;48.718;9.272;2022-09-09T14:49:27;2.63;;;0.70;;
44248;SDS011;29923;48.718;9.272;2022-09-09T14:51:53;6.75;;;0.65;;
44248;SDS011;29923;48.718;9.272;2022-09-09T14:54:19;3.88;;;0.73;;
44248;SDS011;29923;48.718;9.272;2022-09-09T14:56:46;2.80;;;0.65;;
44248;SDS011;29923;48.718;9.272;2022-09-09T14:59:12;1.67;;;0.60;;
44248;SDS011;29923;48.718;9.272;2022-09-09T15:01:38;2.55;;;0.60;;
44248;SDS011;29923;48.718;9.272;2022-09-09T15:04:04;3.60;;;0.93;;
44248;SDS011;29923;48.718;9.272;2022-09-09T15:06:32;6.35;;;0.80;;
44248;SDS011;29923;48.718;9.272;2022-09-09T15:08:59;3.25;;;0.60;;
44248;SDS011;29923;48.718;9.272;2022-09-09T15:11:26;2.45;;;0.70;;
44248;SDS011;29923;48.718;9.272;2022-09-09T15:13:53;4.45;;;0.90;;
44248;SDS011;29923;48.718;9.272;2022-09-09T15:16:19;1.65;;;0.50;;
44248;SDS011;29923;48.718;9.272;2022-09-09T15:18:46;4.10;;;1.17;;
44248;SDS011;29923;48.718;9.272;2022-09-09T15:21:12;2.95;;;0.73;;
44248;SDS011;29923;48.718;9.272;2022-09-09T15:23:39;3.17;;;0.75;;
44248;SDS011;29923;48.718;9.272;2022-09-09T15:26:05;3.13;;;0.85;;
44248;SDS011;29923;48.718;9.272;2022-09-09T15:28:31;3.45;;;0.70;;
44248;SDS011;29923;48.718;9.272;2022-09-09T15:31:02;1.60;;;0.60;;
44248;SDS011;29923;48.718;9.272;2022-09-09T15:33:31;5.45;;;1.17;;
44248;SDS011;29923;48.718;9.272;2022-09-09T15:35:56;2.60;;;0.90;;
44248;SDS011;29923;48.718;9.272;2022-09-09T15:38:22;4.40;;;0.60;;
44248;SDS011;29923;48.718;9.272;2022-09-09T15:40:57;1.60;;;0.60;;
44248;SDS011;29923;48.718;9.272;2022-09-09T15:43:23;6.68;;;0.82;;
44248;SDS011;29923;48.718;9.272;2022-09-09T15:45:51;3.60;;;0.63;;
44248;SDS011;29923;48.718;9.272;2022-09-09T15:48:20;2.53;;;0.70;;
44248;SDS011;29923;48.718;9.272;2022-09-09T15:51:00;5.57;;;1.23;;
44248;SDS011;29923;48.718;9.272;2022-09-09T15:53:27;7.50;;;1.05;;
44248;SDS011;29923;48.718;9.272;2022-09-09T15:55:54;4.00;;;0.80;;
44248;SDS011;29923;48.718;9.272;2022-09-09T15:58:20;5.25;;;0.80;;
44248;SDS011;29923;48.718;9.272;2022-09-09T16:00:45;4.60;;;1.05;;
44248;SDS011;29923;48.718;9.272;2022-09-09T16:03:11;3.30;;;0.60;;
44248;SDS011;29923;48.718;9.272;2022-09-09T16:05:37;4.75;;;0.30;;
44248;SDS011;29923;48.718;9.272;2022-09-09T16:08:03;1.95;;;0.65;;
44248;SDS011;29923;48.718;9.272;2022-09-09T16:10:29;1.10;;;0.30;;
44248;SDS011;29923;48.718;9.272;2022-09-09T16:12:55;2.10;;;0.73;;
44248;SDS011;29923;48.718;9.272;2022-09-09T16:15:21;3.67;;;0.57;;
44248;SDS011;29923;48.718;9.272;2022-09-09T16:17:48;4.28;;;0.77;;
44248;SDS011;29923;48.718;9.272;2022-09-09T16:20:14;4.47;;;0.80;;
44248;SDS011;29923;48.718;9.272;2022-09-09T16:22:39;6.88;;;0.55;;
44248;SDS011;29923;48.718;9.272;2022-09-09T16:25:05;2.53;;;0.85;;
44248;SDS011;29923;48.718;9.272;2022-09-09T16:27:31;3.63;;;1.05;;
44248;SDS011;29923;48.718;9.272;2022-09-09T16:29:56;3.88;;;1.50;;
44248;SDS011;29923;48.718;9.272;2022-09-09T16:32:22;3.30;;;0.50;;
44248;SDS011;29923;48.718;9.272;2022-09-09T16:34:47;3.58;;;0.88;;
44248;SDS011;29923;48.718;9.272;2022-09-09T16:37:13;5.97;;;0.90;;
44248;SDS011;29923;48.718;9.272;2022-09-09T16:39:38;2.92;;;0.52;;
44248;SDS011;29923;48.718;9.272;2022-09-09T16:42:03;2.55;;;0.50;;
44248;SDS011;29923;48.718;9.272;2022-09-09T16:44:29;2.83;;;0.50;;
44248;SDS011;29923;48.718;9.272;2022-09-09T16:46:55;4.75;;;0.73;;
44248;SDS011;29923;48.718;9.272;2022-09-09T16:49:21;3.45;;;0.60;;
44248;SDS011;29923;48.718;9.272;2022-09-09T16:51:47;4.03;;;0.70;;
44248;SDS011;29923;48.718;9.272;2022-09-09T16:54:14;2.78;;;0.63;;
44248;SDS011;29923;48.718;9.272;2022-09-09T16:56:41;2.38;;;0.57;;
44248;SDS011;29923;48.718;9.272;2022-09-09T16:59:09;3.78;;;0.68;;
44248;SDS011;29923;48.718;9.272;2022-09-09T17:01:36;4.57;;;1.08;;
44248;SDS011;29923;48.718;9.272;2022-09-09T17:04:04;2.17;;;0.68;;